createdAt,value
2023-03-17T00:01:20.655Z,10.09
2023-03-17T00:03:50.493Z,10.09
2023-03-17T00:06:24.560Z,10.10
2023-03-17T00:08:52.467Z,10.06
2023-03-17T00:11:21.110Z,10.05
2023-03-17T00:13:51.088Z,10.06
2023-03-17T00:16:22.044Z,10.07
2023-03-17T00:18:51.050Z,9.98
2023-03-17T00:21:30.565Z,9.96
2023-03-17T00:23:59.493Z,10.05
2023-03-17T00:26:27.663Z,10.05
2023-03-17T00:28:56.925Z,10.05
2023-03-17T00:31:27.237Z,10.03
2023-03-17T00:33:56.708Z,9.96
2023-03-17T00:36:27.990Z,9.99
2023-03-17T00:38:56.287Z,9.99
2023-03-17T00:41:27.097Z,9.99
2023-03-17T00:43:57.199Z,9.99
2023-03-17T00:46:27.844Z,9.99
2023-03-17T00:48:56.204Z,9.98
2023-03-17T00:51:24.291Z,9.96
2023-03-17T00:53:52.738Z,9.93
2023-03-17T00:56:22.282Z,9.92
2023-03-17T00:58:50.400Z,9.80
2023-03-17T01:01:19.943Z,9.93
2023-03-17T01:03:48.329Z,9.94
2023-03-17T01:06:16.282Z,9.94
2023-03-17T01:08:45.322Z,9.94
2023-03-17T01:11:17.761Z,9.88
2023-03-17T01:13:46.601Z,9.91
2023-03-17T01:16:15.539Z,9.90
2023-03-17T01:18:45.711Z,9.73
2023-03-17T01:21:14.005Z,9.83
2023-03-17T01:23:42.140Z,9.82
2023-03-17T01:26:09.935Z,9.79
2023-03-17T01:28:37.820Z,9.82
2023-03-17T01:31:05.931Z,9.82
2023-03-17T01:33:33.785Z,9.82
2023-03-17T01:36:03.134Z,9.83
2023-03-17T01:38:31.234Z,9.67
2023-03-17T01:40:59.313Z,9.79
2023-03-17T01:43:29.342Z,9.79
2023-03-17T01:46:23.151Z,9.75
2023-03-17T01:48:59.632Z,9.74
2023-03-17T01:51:33.157Z,9.74
2023-03-17T01:54:04.313Z,9.75
2023-03-17T01:56:32.420Z,9.76
2023-03-17T01:59:03.860Z,9.74
2023-03-17T02:01:38.640Z,9.69
2023-03-17T02:04:08.354Z,9.70
2023-03-17T02:06:47.487Z,9.72
2023-03-17T02:09:23.012Z,9.67
2023-03-17T02:11:51.419Z,9.69
2023-03-17T02:14:20.464Z,9.70
2023-03-17T02:16:48.502Z,9.68
2023-03-17T02:19:17.203Z,9.66
2023-03-17T02:21:48.630Z,9.65
2023-03-17T02:24:26.389Z,9.43
2023-03-17T02:26:56.513Z,9.66
2023-03-17T02:29:24.728Z,9.64
2023-03-17T02:31:53.315Z,9.64
2023-03-17T02:34:23.264Z,9.63
2023-03-17T02:36:52.436Z,9.62
2023-03-17T02:39:20.773Z,9.59
2023-03-17T02:41:48.621Z,9.62
2023-03-17T02:44:17.195Z,9.61
2023-03-17T02:46:44.964Z,9.60
2023-03-17T02:49:13.753Z,9.48
2023-03-17T02:51:41.541Z,9.59
2023-03-17T02:54:10.878Z,9.52
2023-03-17T02:56:38.794Z,9.52
2023-03-17T02:59:07.134Z,9.47
2023-03-17T03:01:35.295Z,9.55
2023-03-17T03:04:03.552Z,9.52
2023-03-17T03:06:31.649Z,9.52
2023-03-17T03:08:59.621Z,9.30
2023-03-17T03:11:29.354Z,9.47
2023-03-17T03:13:57.342Z,9.47
2023-03-17T03:16:25.212Z,9.46
2023-03-17T03:18:53.127Z,9.26
2023-03-17T03:21:22.033Z,9.40
2023-03-17T03:23:50.396Z,9.32
2023-03-17T03:26:18.193Z,9.41
2023-03-17T03:28:47.286Z,9.38
2023-03-17T03:31:15.112Z,9.38
2023-03-17T03:33:43.544Z,9.40
2023-03-17T03:36:11.464Z,9.40
2023-03-17T03:38:39.240Z,9.35
2023-03-17T03:41:07.365Z,9.35
2023-03-17T03:43:35.777Z,9.35
2023-03-17T03:46:05.663Z,9.22
2023-03-17T03:48:33.557Z,9.30
2023-03-17T03:51:03.112Z,9.32
2023-03-17T03:53:31.231Z,9.34
2023-03-17T03:55:59.204Z,9.35
2023-03-17T03:58:26.992Z,9.35
2023-03-17T04:00:54.892Z,9.27
2023-03-17T04:03:24.014Z,9.36
2023-03-17T04:05:51.788Z,9.36
2023-03-17T04:08:19.534Z,9.36
2023-03-17T04:10:47.530Z,9.36
2023-03-17T04:13:15.404Z,9.39
2023-03-17T04:15:43.554Z,9.39
2023-03-17T04:18:11.525Z,9.36
2023-03-17T04:20:40.720Z,9.33
2023-03-17T04:23:08.671Z,9.29
2023-03-17T04:25:36.712Z,9.26
2023-03-17T04:28:04.748Z,9.15
2023-03-17T04:30:32.820Z,9.24
2023-03-17T04:33:01.071Z,9.21
2023-03-17T04:35:28.957Z,9.18
2023-03-17T04:37:58.048Z,9.14
2023-03-17T04:40:26.539Z,9.13
2023-03-17T04:42:54.242Z,9.20
2023-03-17T04:45:22.024Z,9.16
2023-03-17T04:47:49.730Z,9.09
2023-03-17T04:50:18.002Z,9.10
2023-03-17T04:52:45.710Z,9.15
2023-03-17T04:55:15.056Z,9.14
2023-03-17T04:57:43.073Z,9.16
2023-03-17T05:00:12.854Z,9.17
2023-03-17T05:02:41.168Z,9.18
2023-03-17T05:05:09.895Z,9.16
2023-03-17T05:07:37.739Z,9.17
2023-03-17T05:10:06.544Z,9.18
2023-03-17T05:12:35.905Z,9.20
2023-03-17T05:15:05.388Z,9.19
2023-03-17T05:17:33.145Z,9.22
2023-03-17T05:20:00.892Z,9.18
2023-03-17T05:22:28.663Z,9.03
2023-03-17T05:24:56.548Z,9.06
2023-03-17T05:27:24.425Z,9.14
2023-03-17T05:29:53.560Z,9.15
2023-03-17T05:32:21.340Z,9.00
2023-03-17T05:34:49.165Z,9.18
2023-03-17T05:37:17.472Z,9.18
2023-03-17T05:39:45.362Z,9.12
2023-03-17T05:42:13.073Z,9.16
2023-03-17T05:44:40.753Z,9.18
2023-03-17T05:47:10.276Z,9.16
2023-03-17T05:49:37.989Z,9.20
2023-03-17T05:52:05.776Z,9.21
2023-03-17T05:54:33.514Z,9.20
2023-03-17T05:57:01.252Z,9.13
2023-03-17T05:59:29.064Z,9.18
2023-03-17T06:01:57.251Z,9.18
2023-03-17T06:04:26.503Z,9.16
2023-03-17T06:06:54.304Z,9.23
2023-03-17T06:09:22.021Z,9.20
2023-03-17T06:11:49.852Z,9.23
2023-03-17T06:14:18.065Z,9.24
2023-03-17T06:16:46.130Z,9.28
2023-03-17T06:19:13.907Z,9.31
2023-03-17T06:21:43.061Z,9.29
2023-03-17T06:24:11.299Z,9.29
2023-03-17T06:26:39.085Z,9.27
2023-03-17T06:29:09.463Z,9.28
2023-03-17T06:31:38.084Z,9.29
2023-03-17T06:34:06.118Z,9.10
2023-03-17T06:36:35.227Z,9.28
2023-03-17T06:39:06.189Z,9.29
2023-03-17T06:41:33.962Z,9.31
2023-03-17T06:44:01.710Z,9.26
2023-03-17T06:46:29.567Z,9.27
2023-03-17T06:48:57.348Z,9.32
2023-03-17T06:51:25.586Z,9.34
2023-03-17T06:53:53.368Z,9.41
2023-03-17T06:56:29.873Z,9.43
2023-03-17T06:58:58.600Z,9.34
2023-03-17T07:01:27.291Z,9.35
2023-03-17T07:03:55.444Z,9.48
2023-03-17T07:06:23.873Z,9.52
2023-03-17T07:08:52.393Z,9.56
2023-03-17T07:11:20.317Z,9.58
2023-03-17T07:13:49.438Z,9.61
2023-03-17T07:16:19.580Z,9.61
2023-03-17T07:18:47.804Z,9.63
2023-03-17T07:21:15.631Z,9.65
2023-03-17T07:23:43.433Z,9.62
2023-03-17T07:26:11.235Z,9.62
2023-03-17T07:28:39.049Z,9.66
2023-03-17T07:31:09.443Z,9.72
2023-03-17T07:33:37.280Z,9.78
2023-03-17T07:36:07.120Z,9.86
2023-03-17T07:38:35.057Z,9.92
2023-03-17T07:41:03.662Z,9.96
2023-03-17T07:43:31.902Z,10.01
2023-03-17T07:45:59.761Z,10.06
2023-03-17T07:48:30.151Z,10.11
2023-03-17T07:50:57.926Z,10.15
2023-03-17T07:53:26.397Z,10.07
2023-03-17T07:55:54.373Z,10.26
2023-03-17T07:58:22.736Z,10.32
2023-03-17T08:00:50.519Z,10.42
2023-03-17T08:03:19.323Z,10.49
2023-03-17T08:05:53.360Z,10.51
2023-03-17T08:08:22.163Z,10.58
2023-03-17T08:10:50.021Z,10.61
2023-03-17T08:13:17.829Z,10.66
2023-03-17T08:15:46.339Z,10.74
2023-03-17T08:18:14.354Z,10.75
2023-03-17T08:20:42.159Z,10.80
2023-03-17T08:23:11.708Z,10.87
2023-03-17T08:25:39.745Z,11.00
2023-03-17T08:28:07.977Z,11.06
2023-03-17T08:30:36.248Z,11.07
2023-03-17T08:33:04.363Z,11.13
2023-03-17T08:35:32.420Z,11.20
2023-03-17T08:38:00.591Z,11.25
2023-03-17T08:40:30.301Z,11.31
2023-03-17T08:42:59.340Z,11.36
2023-03-17T08:45:27.246Z,11.41
2023-03-17T08:47:55.003Z,11.43
2023-03-17T08:50:25.158Z,11.47
2023-03-17T08:52:54.319Z,11.46
2023-03-17T08:55:22.240Z,11.54
2023-03-17T08:57:51.293Z,11.58
2023-03-17T09:00:20.951Z,11.58
2023-03-17T09:02:49.718Z,11.61
2023-03-17T09:05:18.510Z,11.65
2023-03-17T09:07:46.270Z,11.69
2023-03-17T09:10:16.764Z,11.71
2023-03-17T09:12:44.596Z,11.66
2023-03-17T09:15:13.835Z,11.76
2023-03-17T09:17:43.296Z,11.76
2023-03-17T09:20:13.796Z,11.76
2023-03-17T09:22:41.498Z,11.84
2023-03-17T09:25:10.093Z,11.90
2023-03-17T09:27:37.885Z,12.01
2023-03-17T09:30:06.335Z,12.05
2023-03-17T09:32:35.446Z,12.09
2023-03-17T09:35:03.912Z,12.22
2023-03-17T09:37:32.454Z,12.25
2023-03-17T09:40:00.229Z,12.31
2023-03-17T09:42:41.356Z,12.40
2023-03-17T09:45:22.404Z,12.43
2023-03-17T09:48:02.906Z,12.47
2023-03-17T09:50:39.066Z,12.49
2023-03-17T09:53:13.759Z,12.57
2023-03-17T09:55:42.039Z,12.74
2023-03-17T09:58:12.655Z,12.86
2023-03-17T10:00:40.453Z,13.03
2023-03-17T10:03:12.887Z,13.14
2023-03-17T10:05:40.997Z,13.21
2023-03-17T10:08:30.153Z,13.25
2023-03-17T10:11:09.445Z,13.55
2023-03-17T10:13:51.002Z,13.66
2023-03-17T10:16:20.766Z,13.72
2023-03-17T10:18:56.531Z,13.77
2023-03-17T10:21:29.680Z,13.82
2023-03-17T10:23:59.287Z,13.82
2023-03-17T10:26:32.786Z,13.78
2023-03-17T10:29:04.107Z,13.62
2023-03-17T10:31:34.640Z,13.82
2023-03-17T10:34:14.310Z,13.90
2023-03-17T10:36:44.516Z,13.96
2023-03-17T10:39:15.596Z,14.04
2023-03-17T10:41:55.295Z,14.21
2023-03-17T10:44:30.637Z,14.41
2023-03-17T10:46:58.435Z,14.59
2023-03-17T10:49:27.625Z,14.75
2023-03-17T10:51:55.580Z,15.03
2023-03-17T10:54:26.476Z,14.91
2023-03-17T10:57:02.221Z,15.42
2023-03-17T10:59:32.989Z,15.71
2023-03-17T11:02:02.452Z,16.05
2023-03-17T11:04:35.629Z,16.38
2023-03-17T11:07:08.021Z,16.68
2023-03-17T11:09:37.981Z,17.09
2023-03-17T11:12:08.794Z,17.33
2023-03-17T11:14:36.603Z,17.27
2023-03-17T11:17:14.629Z,17.23
2023-03-17T11:19:53.506Z,17.29
2023-03-17T11:22:31.372Z,17.10
2023-03-17T11:25:06.715Z,16.99
2023-03-17T11:27:38.280Z,17.17
2023-03-17T11:30:32.367Z,17.18
2023-03-17T11:33:11.275Z,17.36
2023-03-17T11:35:51.404Z,17.64
2023-03-17T11:38:28.122Z,17.79
2023-03-17T11:41:23.617Z,18.19
2023-03-17T11:44:01.585Z,18.27
2023-03-17T11:46:33.749Z,18.36
2023-03-17T11:49:11.246Z,18.41
2023-03-17T11:51:59.151Z,18.33
2023-03-17T11:54:36.425Z,18.57
2023-03-17T11:57:07.495Z,18.63
2023-03-17T11:59:40.497Z,18.48
2023-03-17T12:02:21.487Z,18.64
2023-03-17T12:04:55.669Z,18.25
2023-03-17T12:07:30.058Z,18.07
2023-03-17T12:10:09.115Z,17.81
2023-03-17T12:12:44.916Z,17.38
2023-03-17T12:15:18.398Z,17.19
2023-03-17T12:17:53.122Z,17.21
2023-03-17T12:20:27.840Z,17.41
2023-03-17T12:23:02.427Z,17.51
2023-03-17T12:25:33.804Z,17.52
2023-03-17T12:28:06.578Z,17.46
2023-03-17T12:30:41.164Z,17.47
2023-03-17T12:33:18.218Z,17.58
2023-03-17T12:35:46.272Z,17.57
2023-03-17T12:38:21.833Z,17.64
2023-03-17T12:41:15.292Z,17.81
2023-03-17T12:43:55.754Z,18.03
2023-03-17T12:46:37.943Z,18.08
2023-03-17T12:49:30.486Z,18.15
2023-03-17T12:52:14.688Z,18.34
2023-03-17T12:54:47.885Z,18.37
2023-03-17T12:57:20.238Z,18.45
2023-03-17T12:59:51.315Z,18.59
2023-03-17T13:02:32.077Z,18.66
2023-03-17T13:05:01.892Z,18.70
2023-03-17T13:07:35.937Z,18.65
2023-03-17T13:10:40.040Z,18.54
2023-03-17T13:13:12.474Z,18.64
2023-03-17T13:16:01.089Z,18.79
2023-03-17T13:18:53.392Z,18.59
2023-03-17T13:21:26.311Z,18.55
2023-03-17T13:24:01.315Z,18.45
2023-03-17T13:26:56.407Z,18.33
2023-03-17T13:29:27.611Z,18.10
2023-03-17T13:32:31.572Z,17.97
2023-03-17T13:35:18.945Z,17.75
2023-03-17T13:38:12.936Z,17.97
2023-03-17T13:40:50.929Z,18.20
2023-03-17T13:43:43.325Z,18.26
2023-03-17T13:46:22.340Z,18.16
2023-03-17T13:48:50.472Z,18.09
2023-03-17T13:51:22.732Z,18.01
2023-03-17T13:53:55.399Z,18.01
2023-03-17T13:56:25.686Z,18.01
2023-03-17T13:59:06.161Z,17.89
2023-03-17T14:01:40.651Z,17.95
2023-03-17T14:04:18.239Z,17.76
2023-03-17T14:06:47.966Z,17.83
2023-03-17T14:09:29.314Z,17.79
2023-03-17T14:12:03.583Z,17.78
2023-03-17T14:14:42.063Z,17.74
2023-03-17T14:17:14.947Z,17.76
2023-03-17T14:19:43.234Z,17.77
2023-03-17T14:22:22.308Z,17.64
2023-03-17T14:24:54.064Z,17.78
2023-03-17T14:27:23.936Z,17.70
2023-03-17T14:29:53.711Z,17.66
2023-03-17T14:32:24.798Z,17.70
2023-03-17T14:34:57.152Z,17.65
2023-03-17T14:37:26.077Z,17.64
2023-03-17T14:39:56.250Z,17.55
2023-03-17T14:42:27.956Z,17.46
2023-03-17T14:45:08.833Z,17.39
2023-03-17T14:47:43.203Z,17.33
2023-03-17T14:50:18.236Z,17.10
2023-03-17T14:52:46.140Z,17.15
2023-03-17T14:55:15.674Z,17.12
2023-03-17T14:57:43.915Z,16.94
2023-03-17T15:00:32.828Z,16.88
2023-03-17T15:03:03.340Z,16.79
2023-03-17T15:05:38.523Z,16.71
2023-03-17T15:08:38.663Z,16.59
2023-03-17T15:11:08.249Z,16.42
2023-03-17T15:13:38.461Z,16.36
2023-03-17T15:16:18.196Z,16.35
2023-03-17T15:18:46.703Z,16.39
2023-03-17T15:21:28.342Z,16.35
2023-03-17T15:23:56.314Z,16.33
2023-03-17T15:26:31.527Z,16.21
2023-03-17T15:29:00.584Z,16.25
2023-03-17T15:31:30.604Z,16.15
2023-03-17T15:33:59.121Z,16.09
2023-03-17T15:36:32.708Z,16.04
2023-03-17T15:39:01.234Z,15.96
2023-03-17T15:41:29.037Z,16.01
2023-03-17T15:43:56.910Z,16.05
2023-03-17T15:46:32.180Z,16.06
2023-03-17T15:49:00.374Z,16.07
2023-03-17T15:51:28.268Z,16.06
2023-03-17T15:53:56.187Z,16.01
2023-03-17T15:56:24.019Z,15.97
2023-03-17T15:58:52.361Z,15.92
2023-03-17T16:01:21.201Z,15.89
2023-03-17T16:03:50.880Z,15.86
2023-03-17T16:06:21.212Z,15.82
2023-03-17T16:08:49.871Z,15.77
2023-03-17T16:11:19.453Z,15.73
2023-03-17T16:13:48.176Z,15.72
2023-03-17T16:16:21.318Z,15.65
2023-03-17T16:18:52.472Z,15.58
2023-03-17T16:21:20.751Z,15.55
2023-03-17T16:23:50.025Z,15.49
2023-03-17T16:26:17.800Z,15.46
2023-03-17T16:28:47.504Z,15.43
2023-03-17T16:31:22.408Z,15.43
2023-03-17T16:33:52.809Z,15.39
2023-03-17T16:36:22.490Z,15.38
2023-03-17T16:38:51.048Z,15.28
2023-03-17T16:41:21.514Z,15.33
2023-03-17T16:43:52.608Z,15.28
2023-03-17T16:46:22.727Z,15.15
2023-03-17T16:48:52.661Z,15.12
2023-03-17T16:51:20.650Z,15.12
2023-03-17T16:53:48.756Z,15.05
2023-03-17T16:56:19.467Z,14.97
2023-03-17T16:58:48.009Z,14.65
2023-03-17T17:01:19.139Z,14.84
2023-03-17T17:03:47.280Z,14.83
2023-03-17T17:06:16.647Z,14.74
2023-03-17T17:08:44.925Z,14.66
2023-03-17T17:11:13.993Z,14.67
2023-03-17T17:13:42.419Z,14.56
2023-03-17T17:16:20.140Z,14.62
2023-03-17T17:18:48.276Z,14.55
2023-03-17T17:21:17.537Z,14.52
2023-03-17T17:23:45.329Z,14.55
2023-03-17T17:26:13.227Z,14.59
2023-03-17T17:28:41.322Z,14.56
2023-03-17T17:31:10.021Z,14.56
2023-03-17T17:33:38.604Z,14.58
2023-03-17T17:36:12.716Z,14.55
2023-03-17T17:38:42.235Z,14.61
2023-03-17T17:41:11.781Z,14.53
2023-03-17T17:43:39.888Z,14.62
2023-03-17T17:46:17.606Z,14.46
2023-03-17T17:48:45.880Z,14.31
2023-03-17T17:51:13.880Z,14.48
2023-03-17T17:53:43.006Z,14.46
2023-03-17T17:56:15.240Z,14.40
2023-03-17T17:58:43.786Z,14.22
2023-03-17T18:01:13.491Z,14.38
2023-03-17T18:03:42.860Z,14.38
2023-03-17T18:06:11.625Z,14.37
2023-03-17T18:08:39.520Z,14.34
2023-03-17T18:11:08.940Z,14.38
2023-03-17T18:13:38.961Z,14.37
2023-03-17T18:16:09.808Z,14.35
2023-03-17T18:18:40.578Z,14.34
2023-03-17T18:21:08.347Z,14.28
2023-03-17T18:23:36.478Z,14.27
2023-03-17T18:26:06.014Z,14.24
2023-03-17T18:28:35.211Z,14.24
2023-03-17T18:31:10.448Z,14.20
2023-03-17T18:33:39.728Z,14.21
2023-03-17T18:36:08.811Z,14.15
2023-03-17T18:38:37.124Z,14.13
2023-03-17T18:41:05.424Z,14.15
2023-03-17T18:43:33.152Z,14.18
2023-03-17T18:46:02.393Z,14.15
2023-03-17T18:48:30.896Z,14.15
2023-03-17T18:50:58.731Z,14.15
2023-03-17T18:53:27.095Z,14.17
2023-03-17T18:55:54.858Z,14.15
2023-03-17T18:58:22.740Z,13.94
2023-03-17T19:00:50.538Z,14.13
2023-03-17T19:03:19.920Z,14.07
2023-03-17T19:05:47.762Z,14.06
2023-03-17T19:08:16.602Z,14.04
2023-03-17T19:10:44.940Z,14.07
2023-03-17T19:13:13.279Z,14.00
2023-03-17T19:15:41.474Z,14.02
2023-03-17T19:18:09.715Z,14.02
2023-03-17T19:20:38.841Z,13.99
2023-03-17T19:23:07.903Z,13.97
2023-03-17T19:25:36.753Z,13.94
2023-03-17T19:28:05.347Z,13.99
2023-03-17T19:30:33.322Z,13.99
2023-03-17T19:33:01.387Z,13.97
2023-03-17T19:35:29.166Z,13.86
2023-03-17T19:37:58.739Z,13.84
2023-03-17T19:40:26.843Z,13.94
2023-03-17T19:42:56.029Z,13.90
2023-03-17T19:45:23.953Z,13.82
2023-03-17T19:47:51.713Z,13.83
2023-03-17T19:50:20.543Z,13.77
2023-03-17T19:52:48.729Z,13.76
2023-03-17T19:55:17.951Z,13.75
2023-03-17T19:57:45.744Z,13.75
2023-03-17T20:00:14.584Z,13.47
2023-03-17T20:02:42.448Z,13.74
2023-03-17T20:05:10.785Z,13.76
2023-03-17T20:07:38.776Z,13.72
2023-03-17T20:10:08.130Z,13.73
2023-03-17T20:12:38.400Z,13.74
2023-03-17T20:15:07.851Z,13.73
2023-03-17T20:17:36.263Z,13.70
2023-03-17T20:20:04.699Z,13.69
2023-03-17T20:22:33.443Z,13.48
2023-03-17T20:25:03.716Z,13.61
2023-03-17T20:27:32.174Z,13.61
2023-03-17T20:30:01.390Z,13.58
2023-03-17T20:32:29.891Z,13.46
2023-03-17T20:34:58.205Z,13.51
2023-03-17T20:37:25.906Z,13.49
2023-03-17T20:39:57.297Z,13.43
2023-03-17T20:42:31.212Z,13.31
2023-03-17T20:44:59.052Z,13.31
2023-03-17T20:47:28.250Z,13.20
2023-03-17T20:49:58.803Z,13.25
2023-03-17T20:52:29.995Z,13.15
2023-03-17T20:54:59.478Z,12.78
2023-03-17T20:57:27.616Z,13.02
2023-03-17T21:00:00.964Z,13.10
2023-03-17T21:02:30.460Z,13.03
2023-03-17T21:05:01.009Z,13.04
2023-03-17T21:07:28.858Z,13.04
2023-03-17T21:09:56.849Z,13.03
2023-03-17T21:12:28.434Z,12.74
2023-03-17T21:14:56.255Z,13.01
2023-03-17T21:17:24.507Z,12.68
2023-03-17T21:19:54.660Z,12.91
2023-03-17T21:22:22.522Z,12.88
2023-03-17T21:24:53.064Z,12.90
2023-03-17T21:27:23.652Z,12.90
2023-03-17T21:29:54.507Z,12.87
2023-03-17T21:32:22.366Z,12.75
2023-03-17T21:34:50.532Z,12.75
2023-03-17T21:37:19.680Z,12.73
2023-03-17T21:39:47.553Z,12.72
2023-03-17T21:42:15.368Z,12.63
2023-03-17T21:44:43.329Z,12.65
2023-03-17T21:47:11.258Z,12.63
2023-03-17T21:49:39.030Z,12.61
2023-03-17T21:52:07.244Z,12.59
2023-03-17T21:54:36.711Z,11.97
2023-03-17T21:57:05.199Z,12.59
2023-03-17T21:59:35.596Z,12.59
2023-03-17T22:02:03.878Z,12.59
2023-03-17T22:04:31.639Z,12.60
2023-03-17T22:06:59.884Z,12.63
2023-03-17T22:09:27.800Z,12.66
2023-03-17T22:11:56.986Z,12.67
2023-03-17T22:14:24.744Z,12.63
2023-03-17T22:16:57.153Z,12.41
2023-03-17T22:19:25.107Z,12.62
2023-03-17T22:21:53.093Z,12.67
2023-03-17T22:24:21.507Z,12.67
2023-03-17T22:26:49.260Z,12.65
2023-03-17T22:29:18.830Z,12.59
2023-03-17T22:31:46.842Z,12.61
2023-03-17T22:34:14.721Z,12.64
2023-03-17T22:36:42.480Z,12.61
2023-03-17T22:39:10.883Z,12.59
2023-03-17T22:41:39.522Z,12.59
2023-03-17T22:44:08.405Z,12.54
2023-03-17T22:46:40.732Z,12.52
2023-03-17T22:49:09.115Z,12.53
2023-03-17T22:51:37.566Z,12.50
2023-03-17T22:54:05.675Z,12.51
2023-03-17T22:56:33.443Z,12.51
2023-03-17T22:59:01.969Z,12.52
2023-03-17T23:01:29.700Z,12.51
2023-03-17T23:03:58.884Z,12.53
2023-03-17T23:06:26.736Z,12.52
2023-03-17T23:08:54.601Z,12.50
2023-03-17T23:11:24.495Z,12.51
2023-03-17T23:13:53.610Z,12.49
2023-03-17T23:16:22.104Z,12.49
2023-03-17T23:18:50.706Z,12.53
2023-03-17T23:21:24.110Z,12.49
2023-03-17T23:23:51.942Z,12.51
2023-03-17T23:26:19.733Z,12.50
2023-03-17T23:28:47.595Z,12.43
2023-03-17T23:31:15.944Z,12.43
2023-03-17T23:33:43.949Z,12.43
2023-03-17T23:36:13.969Z,12.45
2023-03-17T23:38:44.057Z,12.48
2023-03-17T23:41:12.662Z,12.48
2023-03-17T23:43:41.460Z,12.46
2023-03-17T23:46:09.367Z,12.42
2023-03-17T23:48:37.697Z,12.47
2023-03-17T23:51:05.831Z,12.45
2023-03-17T23:53:33.907Z,12.42
2023-03-17T23:56:03.817Z,12.44
2023-03-17T23:58:31.911Z,12.45
